| time (UTC) | temp F | wind direction | speed MPH | gust MPH | rain 1hr in | rain 24hr in | rain mn in | humidity % | barometer mb |
| 20260906223841 | 66 | 250 | 5.0 | 9.0 | 0.00 | 0.03 | 0.02 | 85 | 1017.1 |
| 20260906223341 | 66 | 219 | 3.0 | 6.0 | 0.00 | 0.03 | 0.02 | 86 | 1017.0 |
| 20260906222841 | 66 | 312 | 4.0 | 8.0 | 0.00 | 0.03 | 0.02 | 88 | 1017.0 |
| 20260906222341 | 66 | 215 | 3.0 | 8.0 | 0.00 | 0.03 | 0.02 | 88 | 1016.9 |
| 20260906221841 | 66 | 215 | 3.0 | 8.0 | 0.00 | 0.03 | 0.02 | 87 | 1016.8 |
| 20260906221341 | 66 | 266 | 4.0 | 9.0 | 0.00 | 0.03 | 0.02 | 89 | 1016.9 |
| 20260906220841 | 65 | 242 | 4.0 | 9.0 | 0.00 | 0.03 | 0.02 | 89 | 1016.8 |
| 20260906220341 | 65 | 222 | 5.0 | 6.0 | 0.00 | 0.03 | 0.02 | 91 | 1016.8 |
| 20260906215841 | 64 | 259 | 0.0 | 6.0 | 0.00 | 0.03 | 0.02 | 91 | 1016.9 |
| 20260906215343 | 64 | 0 | 0.0 | 0.0 | 0.00 | 0.03 | 0.02 | 92 | 1016.9 |
| 20260906214841 | 64 | 217 | 0.0 | 8.0 | 0.00 | 0.03 | 0.02 | 92 | 1016.9 |
| 20260906214341 | 63 | 256 | 0.0 | 8.0 | 0.00 | 0.03 | 0.02 | 92 | 1016.9 |
| 20260906213841 | 63 | 0 | 3.0 | 3.0 | 0.00 | 0.03 | 0.02 | 92 | 1016.9 |
| 20260906213341 | 63 | 249 | 0.0 | 2.0 | 0.00 | 0.03 | 0.02 | 92 | 1016.9 |
| 20260906212841 | 63 | 268 | 0.0 | 5.0 | 0.00 | 0.03 | 0.02 | 92 | 1016.9 |
| 20260906212341 | 63 | 250 | 0.0 | 5.0 | 0.00 | 0.03 | 0.02 | 92 | 1016.9 |
| 20260906211841 | 63 | 261 | 0.0 | 5.0 | 0.00 | 0.03 | 0.02 | 92 | 1017.0 |
| 20260906211341 | 63 | 214 | 2.0 | 4.0 | 0.00 | 0.03 | 0.02 | 92 | 1016.9 |
| 20260906210841 | 63 | 205 | 0.0 | 3.0 | 0.00 | 0.03 | 0.02 | 93 | 1016.8 |
| 20260906210341 | 62 | 217 | 0.0 | 2.0 | 0.00 | 0.04 | 0.02 | 93 | 1016.7 |
| 20260906205841 | 62 | 261 | 0.0 | 7.0 | 0.00 | 0.04 | 0.02 | 94 | 1016.7 |
| 20260906205341 | 62 | 256 | 4.0 | 7.0 | 0.00 | 0.04 | 0.02 | 94 | 1016.7 |
| 20260906204841 | 62 | 0 | 3.0 | 3.0 | 0.00 | 0.04 | 0.02 | 93 | 1016.7 |
| 20260906204341 | 62 | 0 | 0.0 | 0.0 | 0.00 | 0.04 | 0.02 | 94 | 1016.6 |
| 20260906203841 | 62 | 0 | 0.0 | 0.0 | 0.00 | 0.04 | 0.02 | 95 | 1016.5 |
| 20260906203341 | 62 | 228 | 0.0 | 5.0 | 0.00 | 0.04 | 0.02 | 95 | 1016.5 |
| 20260906202841 | 62 | 235 | 0.0 | 5.0 | 0.00 | 0.04 | 0.02 | 96 | 1016.5 |
| 20260906202341 | 61 | 0 | 0.0 | 0.0 | 0.00 | 0.04 | 0.02 | 96 | 1016.5 |
| 20260906201841 | 61 | 0 | 0.0 | 0.0 | 0.00 | 0.04 | 0.02 | 96 | 1016.5 |
| 20260906201343 | 61 | 0 | 0.0 | 0.0 | 0.00 | 0.04 | 0.02 | 97 | 1016.6 |
| 20260906200841 | 61 | 0 | 0.0 | 0.0 | 0.00 | 0.04 | 0.02 | 97 | 1016.5 |
| 20260906200341 | 61 | 0 | 0.0 | 0.0 | 0.00 | 0.04 | 0.02 | 97 | 1016.5 |
| 20260906195841 | 61 | 0 | 0.0 | 0.0 | 0.00 | 0.04 | 0.02 | 98 | 1016.5 |
| 20260906195341 | 60 | 0 | 0.0 | 0.0 | 0.00 | 0.04 | 0.02 | 98 | 1016.5 |
| 20260906194841 | 60 | 0 | 0.0 | 0.0 | 0.00 | 0.04 | 0.02 | 98 | 1016.4 |
| 20260906194341 | 61 | 0 | 0.0 | 0.0 | 0.00 | 0.04 | 0.02 | 98 | 1016.4 |
| 20260906193841 | 61 | 0 | 0.0 | 0.0 | 0.00 | 0.04 | 0.02 | 98 | 1016.4 |
| 20260906193341 | 60 | 0 | 0.0 | 4.0 | 0.00 | 0.04 | 0.02 | 99 | 1016.4 |
| 20260906192841 | 60 | 0 | 0.0 | 4.0 | 0.00 | 0.04 | 0.02 | 99 | 1016.4 |
| 20260906192341 | 60 | 253 | 0.0 | 4.0 | 0.00 | 0.04 | 0.02 | 99 | 1016.4 |
| 20260906191841 | 60 | 0 | 0.0 | 4.0 | 0.00 | 0.04 | 0.02 | 99 | 1016.4 |
| 20260906191341 | 60 | 0 | 0.0 | 4.0 | 0.00 | 0.04 | 0.02 | 99 | 1016.4 |
| 20260906190841 | 60 | 201 | 0.0 | 4.0 | 0.00 | 0.04 | 0.02 | 99 | 1016.4 |
| 20260906185841 | 60 | 0 | 0.0 | 0.0 | 0.00 | 0.04 | 0.02 | 99 | 1016.4 |
| 20260906184841 | 60 | 0 | 0.0 | 0.0 | 0.00 | 0.04 | 0.02 | 99 | 1016.4 |
| 20260906184341 | 60 | 0 | 0.0 | 0.0 | 0.00 | 0.04 | 0.02 | 99 | 1016.4 |
| 20260906183841 | 60 | 0 | 0.0 | 0.0 | 0.00 | 0.04 | 0.02 | 99 | 1016.4 |
| 20260906183341 | 60 | 0 | 0.0 | 0.0 | 0.00 | 0.04 | 0.02 | 99 | 1016.2 |
| 20260906182343 | 59 | 0 | 0.0 | 0.0 | 0.00 | 0.04 | 0.02 | 99 | 1016.5 |
| 20260906181841 | 59 | 0 | 0.0 | 0.0 | 0.00 | 0.04 | 0.02 | 99 | 1016.5 |
| 20260906181341 | 59 | 0 | 0.0 | 0.0 | 0.01 | 0.04 | 0.02 | 99 | 1016.4 |
| 20260906180842 | 59 | 0 | 0.0 | 0.0 | 0.01 | 0.04 | 0.02 | 99 | 1016.3 |
| 20260906180341 | 59 | 0 | 0.0 | 0.0 | 0.01 | 0.03 | 0.02 | 100 | 1016.3 |
| 20260906175840 | 59 | 0 | 0.0 | 0.0 | 0.01 | 0.03 | 0.02 | 99 | 1016.2 |
| 20260906175341 | 59 | 0 | 0.0 | 0.0 | 0.01 | 0.03 | 0.02 | 99 | 1016.2 |
| 20260906174840 | 59 | 0 | 0.0 | 0.0 | 0.01 | 0.03 | 0.02 | 100 | 1016.1 |
| 20260906174340 | 59 | 0 | 0.0 | 0.0 | 0.01 | 0.03 | 0.02 | 100 | 1016.1 |
| 20260906173840 | 59 | 0 | 0.0 | 0.0 | 0.01 | 0.03 | 0.02 | 100 | 1016.1 |
| 20260906173342 | 59 | 0 | 0.0 | 0.0 | 0.01 | 0.03 | 0.02 | 100 | 1016.1 |
| 20260906172841 | 59 | 0 | 0.0 | 0.0 | 0.01 | 0.03 | 0.02 | 100 | 1016.0 |
| 20260906172341 | 58 | 0 | 0.0 | 0.0 | 0.01 | 0.03 | 0.02 | 100 | 1016.0 |
| 20260906171841 | 58 | 0 | 0.0 | 0.0 | 0.01 | 0.03 | 0.02 | 100 | 1015.9 |
| 20260906170842 | 58 | 0 | 0.0 | 0.0 | 0.00 | 0.03 | 0.02 | 100 | 1015.9 |
| 20260906170340 | 57 | 0 | 0.0 | 0.0 | 0.00 | 0.03 | 0.01 | 100 | 1015.8 |
| 20260906165841 | 57 | 0 | 0.0 | 0.0 | 0.00 | 0.03 | 0.01 | 100 | 1016.0 |
| 20260906165341 | 57 | 0 | 0.0 | 0.0 | 0.00 | 0.03 | 0.01 | 100 | 1016.0 |
| 20260906164841 | 57 | 0 | 0.0 | 0.0 | 0.00 | 0.03 | 0.01 | 100 | 1016.1 |
| 20260906164341 | 56 | 0 | 0.0 | 0.0 | 0.00 | 0.03 | 0.01 | 100 | 1016.0 |
| 20260906163841 | 56 | 0 | 0.0 | 0.0 | 0.00 | 0.03 | 0.01 | 100 | 1016.1 |
| 20260906163342 | 56 | 0 | 0.0 | 0.0 | 0.00 | 0.03 | 0.01 | 100 | 1016.0 |
| 20260906162840 | 56 | 0 | 0.0 | 0.0 | 0.00 | 0.03 | 0.01 | 100 | 1016.1 |
| 20260906162343 | 56 | 0 | 0.0 | 0.0 | 0.00 | 0.03 | 0.01 | 100 | 1016.1 |
| 20260906161841 | 56 | 0 | 0.0 | 0.0 | 0.00 | 0.03 | 0.01 | 100 | 1016.1 |
| 20260906161342 | 56 | 0 | 0.0 | 0.0 | 0.00 | 0.03 | 0.01 | 100 | 1016.1 |
| 20260906160840 | 56 | 0 | 0.0 | 0.0 | 0.00 | 0.03 | 0.01 | 100 | 1016.1 |
| 20260906160340 | 56 | 0 | 0.0 | 0.0 | 0.00 | 0.04 | 0.01 | 100 | 1016.1 |
| 20260906155841 | 56 | 0 | 0.0 | 0.0 | 0.00 | 0.04 | 0.01 | 100 | 1016.1 |
| 20260906155344 | 56 | 0 | 0.0 | 0.0 | 0.00 | 0.04 | 0.01 | 100 | 1016.0 |
| 20260906154840 | 56 | 0 | 0.0 | 0.0 | 0.00 | 0.04 | 0.01 | 100 | 1015.9 |
| 20260906154340 | 55 | 0 | 0.0 | 0.0 | 0.00 | 0.04 | 0.01 | 100 | 1015.9 |
| 20260906153840 | 55 | 0 | 0.0 | 0.0 | 0.00 | 0.04 | 0.01 | 100 | 1015.8 |
| 20260906153340 | 55 | 0 | 0.0 | 0.0 | 0.00 | 0.04 | 0.01 | 100 | 1015.8 |
| 20260906152840 | 55 | 0 | 0.0 | 0.0 | 0.00 | 0.04 | 0.01 | 100 | 1015.7 |
| 20260906152341 | 55 | 0 | 0.0 | 0.0 | 0.00 | 0.04 | 0.01 | 100 | 1015.7 |
| 20260906151840 | 55 | 0 | 0.0 | 0.0 | 0.00 | 0.04 | 0.01 | 100 | 1015.7 |
| 20260906151341 | 55 | 0 | 0.0 | 0.0 | 0.00 | 0.04 | 0.01 | 100 | 1015.6 |
| 20260906150841 | 55 | 0 | 0.0 | 0.0 | 0.00 | 0.04 | 0.01 | 100 | 1015.5 |
| 20260906150341 | 55 | 0 | 0.0 | 0.0 | 0.00 | 0.04 | 0.01 | 100 | 1015.3 |
| 20260906145841 | 55 | 0 | 0.0 | 0.0 | 0.00 | 0.04 | 0.01 | 100 | 1015.4 |
| 20260906145341 | 55 | 0 | 0.0 | 0.0 | 0.00 | 0.04 | 0.01 | 100 | 1015.5 |
| 20260906144840 | 55 | 0 | 0.0 | 0.0 | 0.00 | 0.04 | 0.01 | 100 | 1015.5 |
| 20260906144341 | 55 | 0 | 0.0 | 0.0 | 0.00 | 0.04 | 0.01 | 100 | 1015.4 |
| 20260906143842 | 55 | 0 | 0.0 | 0.0 | 0.00 | 0.04 | 0.01 | 100 | 1015.4 |
| 20260906143341 | 55 | 0 | 0.0 | 0.0 | 0.00 | 0.04 | 0.01 | 100 | 1015.3 |
| 20260906142840 | 55 | 0 | 0.0 | 0.0 | 0.00 | 0.04 | 0.01 | 100 | 1015.2 |
| 20260906142342 | 55 | 0 | 0.0 | 0.0 | 0.00 | 0.04 | 0.01 | 100 | 1015.2 |
| 20260906141840 | 55 | 0 | 0.0 | 0.0 | 0.00 | 0.04 | 0.01 | 100 | 1015.1 |
| 20260906141340 | 55 | 0 | 0.0 | 0.0 | 0.00 | 0.04 | 0.01 | 100 | 1015.1 |
| 20260906140840 | 55 | 0 | 0.0 | 0.0 | 0.00 | 0.04 | 0.01 | 100 | 1015.1 |
| 20260906135840 | 55 | 0 | 0.0 | 0.0 | 0.00 | 0.04 | 0.01 | 100 | 1014.9 |
| 20260906135341 | 55 | 0 | 0.0 | 0.0 | 0.00 | 0.04 | 0.01 | 100 | 1015.0 |
| 20260906134840 | 55 | 0 | 0.0 | 0.0 | 0.00 | 0.04 | 0.01 | 100 | 1015.0 |
| 20260906134342 | 55 | 0 | 0.0 | 0.0 | 0.00 | 0.04 | 0.01 | 100 | 1015.0 |
| 20260906133842 | 55 | 0 | 0.0 | 0.0 | 0.00 | 0.04 | 0.01 | 100 | 1014.9 |
| 20260906132840 | 55 | 0 | 0.0 | 0.0 | 0.00 | 0.04 | 0.01 | 100 | 1014.8 |
| 20260906132340 | 55 | 0 | 0.0 | 0.0 | 0.00 | 0.04 | 0.01 | 100 | 1014.7 |
| 20260906131936 | 55 | 0 | 0.0 | 0.0 | 0.00 | 0.04 | 0.01 | 100 | 1014.7 |
| 20260906131933 | 55 | 0 | 0.0 | 0.0 | 0.00 | 0.04 | 0.01 | 100 | 1014.8 |
| 20260906131840 | 55 | 0 | 0.0 | 0.0 | 0.00 | 0.04 | 0.01 | 100 | 1014.8 |
| 20260906130841 | 55 | 0 | 0.0 | 0.0 | 0.00 | 0.04 | 0.01 | 100 | 1014.9 |
| 20260906130340 | 55 | 0 | 0.0 | 0.0 | 0.00 | 0.04 | 0.01 | 100 | 1014.9 |
| 20260906125840 | 55 | 0 | 0.0 | 0.0 | 0.00 | 0.04 | 0.01 | 100 | 1014.8 |
| 20260906125341 | 55 | 0 | 0.0 | 0.0 | 0.00 | 0.04 | 0.01 | 100 | 1014.8 |
| 20260906124840 | 55 | 0 | 0.0 | 0.0 | 0.00 | 0.04 | 0.01 | 100 | 1014.7 |
| 20260906124343 | 55 | 0 | 0.0 | 0.0 | 0.00 | 0.04 | 0.01 | 100 | 1014.6 |
| 20260906123840 | 55 | 0 | 0.0 | 0.0 | 0.00 | 0.04 | 0.01 | 100 | 1014.8 |
| 20260906123431 | 55 | 0 | 0.0 | 0.0 | 0.00 | 0.04 | 0.01 | 100 | 1014.9 |
| 20260906123341 | 55 | 0 | 0.0 | 0.0 | 0.00 | 0.04 | 0.01 | 100 | 1014.9 |
| 20260906122840 | 55 | 0 | 0.0 | 0.0 | 0.00 | 0.04 | 0.01 | 100 | 1014.9 |
| 20260906122341 | 56 | 0 | 0.0 | 0.0 | 0.00 | 0.04 | 0.01 | 100 | 1015.0 |
| 20260906121840 | 56 | 0 | 0.0 | 0.0 | 0.00 | 0.04 | 0.01 | 100 | 1015.0 |
| 20260906121340 | 56 | 0 | 0.0 | 0.0 | 0.00 | 0.04 | 0.01 | 100 | 1015.0 |
| 20260906120841 | 55 | 0 | 0.0 | 0.0 | 0.00 | 0.04 | 0.01 | 100 | 1014.8 |
| 20260906120341 | 55 | 0 | 0.0 | 0.0 | 0.00 | 0.05 | 0.01 | 100 | 1014.9 |
| 20260906115840 | 55 | 0 | 0.0 | 0.0 | 0.00 | 0.05 | 0.01 | 100 | 1014.8 |
| 20260906114841 | 55 | 0 | 0.0 | 0.0 | 0.00 | 0.05 | 0.01 | 99 | 1014.7 |
| 20260906114340 | 55 | 0 | 0.0 | 0.0 | 0.00 | 0.05 | 0.01 | 99 | 1014.7 |
| 20260906113840 | 56 | 0 | 0.0 | 0.0 | 0.00 | 0.05 | 0.01 | 99 | 1014.6 |
| 20260906112842 | 56 | 0 | 0.0 | 0.0 | 0.00 | 0.05 | 0.01 | 99 | 1014.8 |
| 20260906112341 | 56 | 0 | 0.0 | 0.0 | 0.00 | 0.05 | 0.01 | 99 | 1014.6 |
| 20260906111840 | 56 | 0 | 0.0 | 0.0 | 0.00 | 0.05 | 0.01 | 99 | 1014.7 |
| 20260906111341 | 56 | 0 | 0.0 | 0.0 | 0.00 | 0.05 | 0.01 | 99 | 1014.6 |
| 20260906110843 | 56 | 0 | 0.0 | 0.0 | 0.00 | 0.05 | 0.01 | 99 | 1014.7 |
| 20260906110340 | 56 | 0 | 0.0 | 0.0 | 0.00 | 0.05 | 0.01 | 99 | 1014.5 |
| 20260906105840 | 56 | 0 | 0.0 | 0.0 | 0.00 | 0.05 | 0.01 | 99 | 1014.7 |
| 20260906104841 | 56 | 0 | 0.0 | 0.0 | 0.00 | 0.05 | 0.01 | 99 | 1014.6 |
| 20260906104341 | 56 | 0 | 0.0 | 0.0 | 0.00 | 0.05 | 0.01 | 99 | 1014.6 |
| 20260906103840 | 56 | 0 | 0.0 | 0.0 | 0.00 | 0.05 | 0.01 | 99 | 1014.7 |
| 20260906103340 | 56 | 0 | 0.0 | 0.0 | 0.00 | 0.05 | 0.01 | 99 | 1014.8 |
| 20260906102840 | 56 | 0 | 0.0 | 0.0 | 0.00 | 0.05 | 0.01 | 99 | 1014.7 |
| 20260906102342 | 56 | 0 | 0.0 | 0.0 | 0.00 | 0.05 | 0.01 | 99 | 1014.8 |
| 20260906101840 | 56 | 0 | 0.0 | 0.0 | 0.00 | 0.05 | 0.01 | 99 | 1014.8 |
| 20260906101340 | 56 | 0 | 0.0 | 0.0 | 0.00 | 0.05 | 0.01 | 99 | 1014.8 |
| 20260906100840 | 56 | 0 | 0.0 | 0.0 | 0.00 | 0.05 | 0.01 | 99 | 1014.7 |
| 20260906100340 | 56 | 0 | 0.0 | 0.0 | 0.00 | 0.05 | 0.01 | 99 | 1014.8 |
| 20260906095840 | 56 | 0 | 0.0 | 0.0 | 0.00 | 0.05 | 0.01 | 99 | 1014.7 |
| 20260906095340 | 56 | 0 | 0.0 | 0.0 | 0.00 | 0.05 | 0.01 | 99 | 1014.8 |
| 20260906094841 | 56 | 0 | 0.0 | 0.0 | 0.00 | 0.05 | 0.01 | 99 | 1014.8 |
| 20260906094340 | 56 | 0 | 0.0 | 0.0 | 0.00 | 0.05 | 0.01 | 99 | 1014.8 |
| 20260906093842 | 56 | 0 | 0.0 | 0.0 | 0.00 | 0.05 | 0.01 | 99 | 1014.8 |
| 20260906093340 | 56 | 0 | 0.0 | 0.0 | 0.00 | 0.05 | 0.01 | 99 | 1014.9 |
| 20260906092932 | 56 | 0 | 0.0 | 0.0 | 0.00 | 0.05 | 0.01 | 99 | 1014.9 |
| 20260906092840 | 56 | 0 | 0.0 | 0.0 | 0.00 | 0.05 | 0.01 | 99 | 1014.9 |
| 20260906092342 | 56 | 0 | 0.0 | 0.0 | 0.00 | 0.05 | 0.01 | 99 | 1014.8 |
| 20260906091840 | 56 | 0 | 0.0 | 0.0 | 0.00 | 0.05 | 0.01 | 99 | 1014.9 |
| 20260906091340 | 56 | 0 | 0.0 | 0.0 | 0.01 | 0.05 | 0.01 | 99 | 1015.0 |
| 20260906090840 | 56 | 0 | 0.0 | 0.0 | 0.01 | 0.05 | 0.01 | 99 | 1015.0 |
| 20260906090340 | 56 | 0 | 0.0 | 0.0 | 0.01 | 0.04 | 0.01 | 99 | 1015.0 |
| 20260906085840 | 56 | 0 | 0.0 | 0.0 | 0.01 | 0.04 | 0.01 | 99 | 1015.0 |
| 20260906084840 | 56 | 0 | 0.0 | 0.0 | 0.01 | 0.04 | 0.01 | 99 | 1014.8 |
| 20260906084340 | 56 | 0 | 0.0 | 0.0 | 0.01 | 0.04 | 0.01 | 99 | 1014.9 |
| 20260906083840 | 56 | 0 | 0.0 | 0.0 | 0.01 | 0.04 | 0.01 | 99 | 1015.0 |
| 20260906083341 | 56 | 0 | 0.0 | 0.0 | 0.01 | 0.04 | 0.01 | 99 | 1015.0 |
| 20260906082840 | 56 | 0 | 0.0 | 0.0 | 0.01 | 0.04 | 0.01 | 99 | 1015.0 |
| 20260906082341 | 56 | 0 | 0.0 | 0.0 | 0.01 | 0.04 | 0.01 | 99 | 1015.1 |
| 20260906081840 | 56 | 0 | 0.0 | 0.0 | 0.01 | 0.04 | 0.01 | 99 | 1015.1 |
| 20260906081340 | 56 | 0 | 0.0 | 0.0 | 0.00 | 0.04 | 0.01 | 99 | 1015.1 |
| 20260906080843 | 56 | 0 | 0.0 | 0.0 | 0.00 | 0.04 | 0.00 | 99 | 1014.9 |
| 20260906075840 | 56 | 0 | 0.0 | 0.0 | 0.00 | 0.05 | 0.00 | 99 | 1015.0 |
| 20260906075341 | 56 | 0 | 0.0 | 0.0 | 0.00 | 0.05 | 0.00 | 99 | 1015.0 |
| 20260906074840 | 56 | 0 | 0.0 | 0.0 | 0.00 | 0.05 | 0.00 | 99 | 1015.0 |
| 20260906074340 | 56 | 0 | 0.0 | 0.0 | 0.00 | 0.05 | 0.00 | 99 | 1015.1 |
| 20260906073840 | 56 | 0 | 0.0 | 0.0 | 0.00 | 0.05 | 0.00 | 99 | 1015.0 |
| 20260906073340 | 56 | 0 | 0.0 | 0.0 | 0.00 | 0.05 | 0.00 | 99 | 1015.1 |
| 20260906072840 | 56 | 0 | 0.0 | 0.0 | 0.00 | 0.05 | 0.00 | 99 | 1015.1 |
| 20260906072341 | 57 | 0 | 0.0 | 0.0 | 0.00 | 0.05 | 0.00 | 99 | 1015.1 |
| 20260906071840 | 57 | 0 | 0.0 | 0.0 | 0.00 | 0.05 | 0.00 | 99 | 1015.1 |
| 20260906071341 | 57 | 0 | 0.0 | 0.0 | 0.00 | 0.05 | 0.00 | 98 | 1015.1 |
| 20260906070843 | 57 | 0 | 0.0 | 0.0 | 0.00 | 0.05 | 0.00 | 98 | 1015.0 |
| 20260906070340 | 56 | 0 | 0.0 | 0.0 | 0.00 | 0.05 | 0.00 | 98 | 1015.1 |
| 20260906065840 | 56 | 0 | 0.0 | 0.0 | 0.00 | 0.05 | 0.05 | 98 | 1015.0 |
| 20260906065341 | 56 | 0 | 0.0 | 0.0 | 0.00 | 0.05 | 0.05 | 98 | 1015.1 |
| 20260906064840 | 56 | 0 | 0.0 | 0.0 | 0.00 | 0.05 | 0.05 | 98 | 1015.1 |
| 20260906064340 | 56 | 0 | 0.0 | 0.0 | 0.00 | 0.05 | 0.05 | 98 | 1015.1 |
| 20260906063840 | 56 | 0 | 0.0 | 0.0 | 0.00 | 0.05 | 0.05 | 98 | 1015.1 |
| 20260906063343 | 56 | 0 | 0.0 | 0.0 | 0.00 | 0.05 | 0.05 | 98 | 1015.1 |
| 20260906062841 | 56 | 0 | 0.0 | 0.0 | 0.00 | 0.05 | 0.05 | 98 | 1015.2 |
| 20260906062341 | 56 | 0 | 0.0 | 0.0 | 0.00 | 0.05 | 0.05 | 98 | 1015.2 |
| 20260906061840 | 56 | 0 | 0.0 | 0.0 | 0.00 | 0.05 | 0.05 | 98 | 1015.2 |
| 20260906061340 | 56 | 0 | 0.0 | 0.0 | 0.00 | 0.05 | 0.05 | 98 | 1015.2 |
| 20260906060840 | 56 | 0 | 0.0 | 0.0 | 0.00 | 0.05 | 0.05 | 98 | 1015.3 |
| 20260906060340 | 57 | 0 | 0.0 | 0.0 | 0.00 | 0.05 | 0.05 | 98 | 1015.3 |
| 20260906055840 | 57 | 0 | 0.0 | 0.0 | 0.00 | 0.05 | 0.05 | 97 | 1015.3 |
| 20260906055341 | 57 | 0 | 0.0 | 0.0 | 0.00 | 0.05 | 0.05 | 97 | 1015.3 |
| 20260906054840 | 57 | 0 | 0.0 | 0.0 | 0.00 | 0.05 | 0.05 | 97 | 1015.4 |
| 20260906054340 | 57 | 0 | 0.0 | 0.0 | 0.00 | 0.05 | 0.05 | 97 | 1015.4 |
| 20260906053840 | 57 | 0 | 0.0 | 0.0 | 0.00 | 0.05 | 0.05 | 97 | 1015.4 |
| 20260906053340 | 57 | 0 | 0.0 | 0.0 | 0.00 | 0.05 | 0.05 | 97 | 1015.4 |
| 20260906052935 | 57 | 0 | 0.0 | 0.0 | 0.00 | 0.05 | 0.05 | 97 | 1015.4 |
| 20260906052840 | 57 | 0 | 0.0 | 0.0 | 0.00 | 0.05 | 0.05 | 97 | 1015.4 |
| 20260906052341 | 57 | 0 | 0.0 | 0.0 | 0.00 | 0.05 | 0.05 | 97 | 1015.5 |
| 20260906051841 | 58 | 0 | 0.0 | 0.0 | 0.00 | 0.05 | 0.05 | 97 | 1015.4 |
| 20260906051340 | 58 | 0 | 0.0 | 0.0 | 0.00 | 0.05 | 0.05 | 97 | 1015.4 |
| 20260906050839 | 58 | 0 | 0.0 | 0.0 | 0.00 | 0.05 | 0.05 | 97 | 1015.5 |
| 20260906050340 | 58 | 0 | 0.0 | 0.0 | 0.00 | 0.06 | 0.05 | 97 | 1015.5 |
| 20260906045840 | 58 | 0 | 0.0 | 0.0 | 0.00 | 0.06 | 0.05 | 97 | 1015.5 |
| 20260906044840 | 58 | 0 | 0.0 | 0.0 | 0.00 | 0.06 | 0.05 | 96 | 1015.4 |
| 20260906044341 | 58 | 0 | 0.0 | 0.0 | 0.00 | 0.06 | 0.05 | 96 | 1015.5 |
| 20260906043841 | 58 | 0 | 0.0 | 0.0 | 0.00 | 0.06 | 0.05 | 96 | 1015.5 |
| 20260906043341 | 58 | 0 | 0.0 | 0.0 | 0.00 | 0.06 | 0.05 | 96 | 1015.3 |
| 20260906042839 | 58 | 0 | 0.0 | 0.0 | 0.00 | 0.06 | 0.05 | 96 | 1015.3 |
| 20260906042343 | 58 | 0 | 0.0 | 0.0 | 0.00 | 0.06 | 0.05 | 96 | 1015.5 |
| 20260906041839 | 58 | 0 | 0.0 | 0.0 | 0.00 | 0.06 | 0.05 | 96 | 1015.4 |
| 20260906041434 | 58 | 0 | 0.0 | 0.0 | 0.00 | 0.06 | 0.05 | 96 | 1015.4 |
| 20260906041340 | 58 | 0 | 0.0 | 0.0 | 0.00 | 0.06 | 0.05 | 96 | 1015.4 |
| 20260906040839 | 59 | 0 | 0.0 | 0.0 | 0.00 | 0.06 | 0.05 | 96 | 1015.3 |
| 20260906040343 | 59 | 0 | 0.0 | 0.0 | 0.00 | 0.06 | 0.05 | 96 | 1015.4 |
| 20260906035839 | 59 | 0 | 0.0 | 0.0 | 0.00 | 0.06 | 0.05 | 96 | 1015.4 |
| 20260906035342 | 59 | 0 | 0.0 | 0.0 | 0.00 | 0.06 | 0.05 | 96 | 1015.5 |
| 20260906034839 | 59 | 0 | 0.0 | 0.0 | 0.00 | 0.06 | 0.05 | 96 | 1015.3 |
| 20260906034339 | 59 | 0 | 0.0 | 0.0 | 0.00 | 0.06 | 0.05 | 95 | 1015.4 |
| 20260906033839 | 59 | 0 | 0.0 | 0.0 | 0.00 | 0.06 | 0.05 | 95 | 1015.5 |
| 20260906033339 | 59 | 0 | 0.0 | 0.0 | 0.00 | 0.06 | 0.05 | 95 | 1015.5 |
| 20260906032839 | 60 | 0 | 0.0 | 0.0 | 0.00 | 0.06 | 0.05 | 95 | 1015.5 |
| 20260906032344 | 60 | 0 | 0.0 | 0.0 | 0.00 | 0.06 | 0.05 | 95 | 1015.5 |
| 20260906031839 | 60 | 0 | 0.0 | 0.0 | 0.00 | 0.06 | 0.05 | 95 | 1015.6 |
| 20260906031339 | 60 | 0 | 0.0 | 0.0 | 0.00 | 0.06 | 0.05 | 95 | 1015.7 |
| 20260906030839 | 60 | 0 | 0.0 | 0.0 | 0.00 | 0.06 | 0.05 | 95 | 1015.6 |
| 20260906030339 | 60 | 0 | 0.0 | 0.0 | 0.00 | 0.06 | 0.05 | 95 | 1015.6 |
| 20260906025341 | 60 | 0 | 0.0 | 0.0 | 0.00 | 0.06 | 0.05 | 94 | 1015.6 |
| 20260906024839 | 60 | 0 | 0.0 | 0.0 | 0.00 | 0.06 | 0.05 | 94 | 1015.6 |
| 20260906024340 | 60 | 0 | 0.0 | 0.0 | 0.00 | 0.06 | 0.05 | 94 | 1015.5 |
| 20260906023339 | 60 | 0 | 0.0 | 0.0 | 0.00 | 0.06 | 0.05 | 94 | 1015.5 |
| 20260906022839 | 60 | 0 | 0.0 | 0.0 | 0.00 | 0.06 | 0.05 | 94 | 1015.4 |
| 20260906022342 | 60 | 0 | 0.0 | 0.0 | 0.00 | 0.06 | 0.05 | 94 | 1015.4 |
| 20260906021339 | 61 | 0 | 0.0 | 0.0 | 0.00 | 0.06 | 0.05 | 94 | 1015.5 |
| 20260906020839 | 61 | 0 | 0.0 | 0.0 | 0.00 | 0.06 | 0.05 | 94 | 1015.5 |
| 20260906020341 | 61 | 0 | 0.0 | 0.0 | 0.01 | 0.07 | 0.05 | 94 | 1015.4 |
| 20260906015839 | 61 | 0 | 0.0 | 0.0 | 0.01 | 0.07 | 0.05 | 94 | 1015.5 |
| 20260906015340 | 61 | 0 | 0.0 | 0.0 | 0.01 | 0.07 | 0.05 | 94 | 1015.6 |
| 20260906014839 | 61 | 0 | 0.0 | 0.0 | 0.01 | 0.07 | 0.05 | 94 | 1015.7 |
| 20260906014340 | 61 | 0 | 0.0 | 0.0 | 0.01 | 0.07 | 0.05 | 94 | 1015.7 |
| 20260906013841 | 61 | 0 | 0.0 | 0.0 | 0.01 | 0.07 | 0.05 | 94 | 1015.6 |
| 20260906013339 | 61 | 0 | 0.0 | 3.0 | 0.01 | 0.07 | 0.05 | 94 | 1015.6 |
| 20260906012839 | 61 | 0 | 0.0 | 3.0 | 0.01 | 0.07 | 0.05 | 94 | 1015.6 |
| 20260906012342 | 61 | 208 | 0.0 | 3.0 | 0.01 | 0.07 | 0.05 | 94 | 1015.6 |
| 20260906011839 | 61 | 196 | 3.0 | 5.0 | 0.01 | 0.07 | 0.05 | 93 | 1015.6 |
| 20260906011339 | 61 | 210 | 0.0 | 5.0 | 0.01 | 0.07 | 0.05 | 93 | 1015.5 |
| 20260906010839 | 61 | 0 | 0.0 | 0.0 | 0.01 | 0.07 | 0.05 | 93 | 1015.5 |
| 20260906010339 | 61 | 0 | 0.0 | 0.0 | 0.00 | 0.06 | 0.05 | 93 | 1015.4 |
| 20260906005839 | 61 | 0 | 0.0 | 0.0 | 0.00 | 0.06 | 0.04 | 93 | 1015.4 |
| 20260906005342 | 61 | 0 | 0.0 | 0.0 | 0.00 | 0.06 | 0.04 | 93 | 1015.4 |
| 20260906004839 | 61 | 0 | 0.0 | 0.0 | 0.00 | 0.06 | 0.04 | 93 | 1015.5 |
| 20260906004339 | 61 | 0 | 0.0 | 0.0 | 0.00 | 0.06 | 0.04 | 93 | 1015.4 |
| 20260906003841 | 61 | 0 | 0.0 | 0.0 | 0.00 | 0.06 | 0.04 | 93 | 1015.6 |
| 20260906003339 | 62 | 0 | 0.0 | 3.0 | 0.00 | 0.06 | 0.04 | 92 | 1015.6 |
| 20260906002839 | 62 | 207 | 0.0 | 3.0 | 0.00 | 0.06 | 0.04 | 92 | 1015.6 |
| 20260906002340 | 62 | 0 | 0.0 | 1.0 | 0.00 | 0.06 | 0.04 | 91 | 1015.6 |
| 20260906001839 | 62 | 0 | 0.0 | 0.0 | 0.00 | 0.06 | 0.04 | 91 | 1015.6 |
| 20260906001342 | 62 | 214 | 0.0 | 6.0 | 0.00 | 0.06 | 0.04 | 91 | 1015.6 |
| 20260906000839 | 63 | 219 | 2.0 | 6.0 | 0.00 | 0.06 | 0.04 | 91 | 1015.6 |
| 20260905235839 | 63 | 0 | 4.0 | 4.0 | 0.00 | 0.07 | 0.04 | 91 | 1015.4 |
| 20260905234839 | 63 | 212 | 0.0 | 6.0 | 0.00 | 0.07 | 0.04 | 91 | 1015.3 |
| 20260905234341 | 63 | 270 | 3.0 | 6.0 | 0.00 | 0.07 | 0.04 | 92 | 1015.3 |
| 20260905233839 | 63 | 231 | 0.0 | 5.0 | 0.00 | 0.07 | 0.04 | 92 | 1015.3 |
| 20260905233339 | 63 | 0 | 2.0 | 5.0 | 0.00 | 0.07 | 0.04 | 94 | 1015.3 |
| 20260905232839 | 63 | 238 | 0.0 | 5.0 | 0.00 | 0.07 | 0.04 | 95 | 1015.3 |
| 20260905232340 | 62 | 0 | 1.0 | 3.0 | 0.00 | 0.07 | 0.04 | 94 | 1015.4 |
| 20260905231840 | 62 | 0 | 0.0 | 0.0 | 0.00 | 0.07 | 0.04 | 95 | 1015.4 |
| 20260905231339 | 62 | 0 | 0.0 | 0.0 | 0.00 | 0.07 | 0.04 | 94 | 1015.5 |
| 20260905230839 | 62 | 0 | 0.0 | 0.0 | 0.00 | 0.07 | 0.04 | 95 | 1015.5 |
| 20260905230339 | 62 | 0 | 0.0 | 0.0 | 0.00 | 0.07 | 0.04 | 95 | 1015.3 |
| 20260905225839 | 62 | 0 | 0.0 | 0.0 | 0.00 | 0.07 | 0.04 | 95 | 1015.6 |
| 20260905224839 | 62 | 0 | 0.0 | 0.0 | 0.00 | 0.07 | 0.04 | 94 | 1015.8 |
| 20260905224340 | 62 | 0 | 0.0 | 0.0 | 0.00 | 0.07 | 0.04 | 95 | 1015.8 |